Toledo Express Airport
KTOL : now visible

Airfield :











YOU CAN JOIN US ON...

 
LOGIN :

Register | Disclaimer

   EN    FR    IT 

 









Legend :    VFR   Marginal VFR   IFR   Intensive IFR   Very Intensive IFR
Visi :
Ceiling :
>= 8 km
>= 3000ft
5 to 8 km
1000 to 3000 ft
1500m to 5 km
500 to 1000 ft
800 to 1500m
200 to 500 ft
< 800m
< 200 ft
Symbols :   Thunderstorms  Fog  Heavy snow  Heavy precipitations  Wind > 20 kt







- Airport Elevation : 683 ft
- IATA code : TOL


KTOL - Toledo Express

CURRENT METAR :
  • 190935Z 23006KT 10SM OVC004 21/18 A2997 RMK AO2 T02110183

EXPIRED METARs :
  • 190852Z 21004KT 10SM BKN012 20/18 A2996 RMK AO2 SLP141 T02000178 53000
  • 190823Z 18004KT 10SM BKN014 20/18 A2996 RMK AO2 T02000178
  • 190752Z 00000KT 10SM CLR 21/18 A2995 RMK AO2 SLP139 T02060183
  • 190652Z 27003KT 10SM CLR 21/18 A2995 RMK AO2 SLP136 T02110183

TAF KTOL
Valid from the 19 at 09:00 until the 20 at 06:00 UTC


190849Z 1909/2006 20005KT P6SM SCT250
TEMPO 1909/1912 BKN015
No reported NOTAMs for that airfield.



MET'MAP, your aeronautical weather chart ! - Copyright ORBIFLY December 2007 - Disclaimer

ORBIFLY MET'MAP TEAM :

Programming & Development : Alexandra Zaïnal
Concept & Development : Baudouin d'Aumeries
Co-Development & Prog : Marc-Olivier Méhu
Technical & hardware support : Manuel Goepfert

Contact : metmap@orbifly.com




SOURCES & CREDITS :

   NOAA       Earth
Advisory